createdAt,value
2022-08-31T00:00:31.134Z,21.42
2022-08-31T00:03:17.119Z,21.39
2022-08-31T00:05:44.434Z,21.39
2022-08-31T00:08:11.256Z,21.31
2022-08-31T00:10:41.357Z,21.24
2022-08-31T00:13:12.025Z,21.19
2022-08-31T00:15:38.935Z,21.13
2022-08-31T00:18:06.105Z,21.09
2022-08-31T00:20:34.797Z,21.04
2022-08-31T00:23:02.681Z,20.94
2022-08-31T00:25:30.112Z,20.88
2022-08-31T00:27:57.195Z,20.83
2022-08-31T00:30:26.117Z,20.77
2022-08-31T00:32:53.034Z,20.73
2022-08-31T00:35:19.988Z,20.71
2022-08-31T00:37:47.152Z,20.67
2022-08-31T00:40:14.664Z,20.58
2022-08-31T00:42:41.709Z,20.51
2022-08-31T00:45:10.426Z,20.53
2022-08-31T00:47:38.728Z,20.58
2022-08-31T00:50:09.673Z,20.55
2022-08-31T00:52:40.071Z,20.47
2022-08-31T00:55:11.875Z,20.40
2022-08-31T00:57:42.910Z,20.30
2022-08-31T01:00:13.514Z,20.19
2022-08-31T01:02:42.691Z,20.19
2022-08-31T01:05:10.322Z,20.11
2022-08-31T01:07:38.029Z,20.05
2022-08-31T01:10:07.124Z,20.02
2022-08-31T01:12:34.203Z,20.00
2022-08-31T01:15:02.861Z,19.99
2022-08-31T01:17:32.948Z,19.95
2022-08-31T01:20:09.807Z,19.86
2022-08-31T01:22:43.583Z,19.75
2022-08-31T01:25:13.930Z,19.67
2022-08-31T01:27:41.334Z,19.66
2022-08-31T01:30:11.122Z,19.59
2022-08-31T01:32:38.772Z,19.54
2022-08-31T01:35:07.423Z,19.50
2022-08-31T01:37:38.872Z,19.44
2022-08-31T01:40:08.558Z,19.37
2022-08-31T01:42:37.344Z,19.32
2022-08-31T01:45:05.987Z,19.26
2022-08-31T01:47:34.148Z,19.20
2022-08-31T01:50:01.700Z,19.15
2022-08-31T01:52:29.719Z,19.17
2022-08-31T01:54:57.035Z,19.16
2022-08-31T01:57:33.817Z,19.13
2022-08-31T02:00:21.204Z,19.06
2022-08-31T02:02:48.139Z,19.07
2022-08-31T02:05:15.504Z,19.06
2022-08-31T02:07:45.412Z,18.97
2022-08-31T02:10:12.572Z,18.97
2022-08-31T02:12:40.284Z,18.97
2022-08-31T02:15:09.150Z,18.96
2022-08-31T02:17:37.542Z,18.88
2022-08-31T02:20:08.253Z,18.85
2022-08-31T02:22:35.409Z,18.83
2022-08-31T02:25:03.138Z,18.82
2022-08-31T02:27:30.129Z,18.80
2022-08-31T02:29:57.199Z,18.70
2022-08-31T02:32:25.102Z,18.68
2022-08-31T02:34:53.576Z,18.71
2022-08-31T02:37:21.094Z,18.70
2022-08-31T02:39:48.683Z,18.69
2022-08-31T02:42:18.382Z,18.71
2022-08-31T02:44:45.662Z,18.69
2022-08-31T02:47:12.824Z,18.69
2022-08-31T02:50:03.750Z,18.64
2022-08-31T02:52:31.239Z,18.56
2022-08-31T02:54:58.358Z,18.55
2022-08-31T02:57:25.441Z,18.58
2022-08-31T02:59:52.369Z,18.52
2022-08-31T03:02:19.376Z,18.44
2022-08-31T03:04:46.441Z,18.43
2022-08-31T03:07:17.075Z,18.44
2022-08-31T03:09:45.507Z,18.42
2022-08-31T03:12:12.415Z,18.46
2022-08-31T03:14:39.748Z,18.51
2022-08-31T03:17:07.149Z,18.55
2022-08-31T03:19:34.788Z,18.58
2022-08-31T03:22:03.902Z,18.57
2022-08-31T03:24:33.071Z,18.55
2022-08-31T03:26:59.952Z,18.57
2022-08-31T03:29:27.637Z,18.59
2022-08-31T03:31:54.847Z,18.57
2022-08-31T03:34:22.314Z,18.58
2022-08-31T03:36:49.247Z,18.58
2022-08-31T03:39:16.373Z,18.60
2022-08-31T03:41:44.989Z,18.60
2022-08-31T03:44:12.969Z,18.61
2022-08-31T03:46:45.427Z,18.60
2022-08-31T03:49:12.766Z,18.57
2022-08-31T03:51:47.507Z,18.54
2022-08-31T03:54:18.877Z,18.56
2022-08-31T03:56:47.756Z,18.59
2022-08-31T03:59:15.116Z,18.60
2022-08-31T04:02:02.124Z,18.63
2022-08-31T04:04:50.327Z,18.58
2022-08-31T04:07:42.462Z,18.54
2022-08-31T04:10:49.958Z,18.53
2022-08-31T04:13:38.558Z,18.49
2022-08-31T04:16:24.828Z,18.44
2022-08-31T04:19:09.228Z,18.38
2022-08-31T04:21:48.080Z,18.49
2022-08-31T04:24:14.976Z,18.53
2022-08-31T04:26:42.288Z,18.48
2022-08-31T04:29:13.670Z,18.55
2022-08-31T04:31:41.782Z,18.57
2022-08-31T04:34:08.815Z,18.58
2022-08-31T04:36:35.881Z,18.64
2022-08-31T04:39:04.245Z,18.65
2022-08-31T04:41:32.825Z,18.60
2022-08-31T04:44:01.291Z,18.34
2022-08-31T04:46:36.162Z,18.32
2022-08-31T04:49:03.324Z,18.43
2022-08-31T04:51:35.546Z,18.49
2022-08-31T04:54:03.918Z,18.66
2022-08-31T04:56:32.301Z,18.76
2022-08-31T04:59:01.644Z,18.79
2022-08-31T05:01:36.779Z,18.74
2022-08-31T05:04:29.206Z,18.44
2022-08-31T05:06:56.579Z,18.55
2022-08-31T05:09:24.451Z,18.63
2022-08-31T05:11:54.237Z,18.73
2022-08-31T05:14:22.338Z,18.83
2022-08-31T05:16:57.622Z,18.86
2022-08-31T05:19:24.539Z,18.88
2022-08-31T05:21:51.742Z,18.92
2022-08-31T05:24:22.539Z,18.95
2022-08-31T05:26:51.830Z,18.95
2022-08-31T05:29:22.146Z,18.96
2022-08-31T05:31:52.747Z,18.85
2022-08-31T05:34:21.889Z,18.89
2022-08-31T05:36:51.250Z,18.90
2022-08-31T05:39:18.279Z,19.01
2022-08-31T05:41:46.519Z,19.10
2022-08-31T05:44:14.900Z,19.19
2022-08-31T05:46:43.269Z,19.38
2022-08-31T05:49:11.661Z,19.49
2022-08-31T05:51:40.668Z,19.56
2022-08-31T05:54:08.302Z,19.69
2022-08-31T05:56:35.733Z,19.78
2022-08-31T05:59:03.159Z,19.96
2022-08-31T06:01:33.267Z,19.86
2022-08-31T06:04:20.575Z,19.67
2022-08-31T06:06:48.831Z,19.75
2022-08-31T06:09:19.136Z,19.59
2022-08-31T06:11:46.890Z,19.40
2022-08-31T06:14:16.997Z,19.49
2022-08-31T06:16:45.394Z,19.32
2022-08-31T06:19:15.350Z,19.30
2022-08-31T06:21:51.480Z,19.10
2022-08-31T06:24:24.885Z,19.17
2022-08-31T06:26:58.906Z,19.34
2022-08-31T06:29:32.313Z,19.33
2022-08-31T06:32:00.959Z,19.51
2022-08-31T06:34:29.579Z,19.54
2022-08-31T06:37:18.409Z,19.56
2022-08-31T06:39:53.834Z,19.56
2022-08-31T06:42:35.520Z,19.77
2022-08-31T06:45:02.634Z,19.53
2022-08-31T06:47:42.415Z,19.81
2022-08-31T06:50:12.363Z,20.01
2022-08-31T06:52:40.231Z,19.89
2022-08-31T06:55:25.787Z,19.53
2022-08-31T06:58:11.908Z,19.88
2022-08-31T07:01:04.882Z,20.13
2022-08-31T07:03:48.686Z,20.15
2022-08-31T07:06:20.248Z,20.34
2022-08-31T07:08:52.079Z,20.57
2022-08-31T07:11:23.818Z,20.64
2022-08-31T07:13:53.269Z,20.88
2022-08-31T07:16:22.200Z,21.00
2022-08-31T07:18:50.786Z,21.15
2022-08-31T07:21:21.070Z,21.32
2022-08-31T07:23:50.150Z,21.39
2022-08-31T07:26:25.674Z,21.54
2022-08-31T07:28:53.598Z,21.72
2022-08-31T07:31:22.933Z,21.87
2022-08-31T07:33:51.304Z,22.40
2022-08-31T07:36:18.433Z,23.25
2022-08-31T07:39:22.890Z,23.67
2022-08-31T07:42:10.374Z,23.68
2022-08-31T07:44:37.933Z,24.13
2022-08-31T07:47:06.286Z,24.44
2022-08-31T07:49:35.621Z,24.46
2022-08-31T07:52:08.980Z,24.77
2022-08-31T07:54:50.914Z,24.77
2022-08-31T07:57:30.234Z,25.28
2022-08-31T08:00:07.949Z,25.46
2022-08-31T08:02:42.086Z,25.19
2022-08-31T08:05:12.593Z,25.36
2022-08-31T08:08:03.775Z,25.41
2022-08-31T08:10:53.676Z,25.30
2022-08-31T08:13:35.752Z,24.53
2022-08-31T08:16:19.326Z,24.75
2022-08-31T08:19:08.754Z,24.41
2022-08-31T08:21:35.824Z,24.08
2022-08-31T08:24:03.267Z,24.15
2022-08-31T08:26:44.668Z,24.27
2022-08-31T08:29:33.818Z,24.03
2022-08-31T08:32:03.073Z,23.88
2022-08-31T08:34:32.859Z,24.54
2022-08-31T08:37:01.982Z,25.22
2022-08-31T08:39:29.216Z,25.29
2022-08-31T08:42:11.058Z,25.55
2022-08-31T08:44:40.726Z,26.05
2022-08-31T08:47:15.038Z,26.05
2022-08-31T08:49:53.964Z,26.36
2022-08-31T08:52:27.356Z,26.56
2022-08-31T08:54:56.912Z,26.05
2022-08-31T08:57:27.937Z,26.43
2022-08-31T09:00:00.811Z,26.83
2022-08-31T09:02:35.205Z,26.30
2022-08-31T09:05:18.236Z,26.55
2022-08-31T09:08:18.563Z,26.79
2022-08-31T09:10:56.901Z,26.21
2022-08-31T09:13:30.984Z,26.22
2022-08-31T09:16:17.619Z,25.62
2022-08-31T09:18:49.594Z,26.21
2022-08-31T09:21:22.156Z,26.39
2022-08-31T09:24:01.684Z,26.34
2022-08-31T09:26:35.697Z,26.43
2022-08-31T09:29:21.916Z,26.15
2022-08-31T09:32:05.950Z,26.48
2022-08-31T09:34:37.392Z,26.80
2022-08-31T09:37:16.913Z,27.15
2022-08-31T09:39:47.634Z,27.43
2022-08-31T09:42:21.351Z,27.70
2022-08-31T09:44:50.521Z,27.86
2022-08-31T09:50:16.948Z,27.69
2022-08-31T09:53:02.394Z,27.75
2022-08-31T09:55:29.289Z,27.95
2022-08-31T09:57:59.238Z,28.25
2022-08-31T10:00:32.716Z,28.05
2022-08-31T10:03:13.502Z,28.08
2022-08-31T10:05:43.829Z,28.47
2022-08-31T10:08:23.676Z,28.83
2022-08-31T10:10:51.607Z,28.64
2022-08-31T10:13:24.206Z,28.55
2022-08-31T10:15:54.369Z,28.46
2022-08-31T10:18:29.079Z,28.17
2022-08-31T10:21:06.105Z,28.18
2022-08-31T10:23:41.174Z,28.35
2022-08-31T10:26:16.952Z,28.00
2022-08-31T10:28:50.924Z,27.19
2022-08-31T10:31:23.816Z,27.49
2022-08-31T10:34:13.628Z,27.63
2022-08-31T10:36:42.605Z,27.70
2022-08-31T10:39:19.256Z,27.83
2022-08-31T10:41:49.924Z,26.61
2022-08-31T10:44:28.367Z,27.66
2022-08-31T10:47:05.752Z,28.14
2022-08-31T10:49:39.204Z,28.13
2022-08-31T10:52:17.232Z,28.60
2022-08-31T10:54:51.191Z,28.75
2022-08-31T10:57:33.948Z,28.76
2022-08-31T11:00:30.011Z,28.60
2022-08-31T11:03:07.401Z,28.89
2022-08-31T11:05:40.179Z,29.20
2022-08-31T11:08:28.996Z,29.20
2022-08-31T11:10:59.206Z,29.37
2022-08-31T11:14:00.461Z,29.38
2022-08-31T11:16:49.703Z,29.12
2022-08-31T11:19:38.597Z,29.16
2022-08-31T11:22:29.596Z,28.82
2022-08-31T11:25:20.780Z,28.84
2022-08-31T11:27:53.334Z,28.75
2022-08-31T11:30:24.694Z,28.82
2022-08-31T11:32:54.903Z,28.88
2022-08-31T11:36:04.061Z,28.66
2022-08-31T11:38:52.120Z,28.94
2022-08-31T11:41:43.616Z,28.80
2022-08-31T11:44:45.450Z,28.58
2022-08-31T11:47:34.739Z,27.89
2022-08-31T11:50:04.553Z,28.59
2022-08-31T11:52:43.190Z,28.73
2022-08-31T11:55:25.480Z,28.48
2022-08-31T11:58:20.107Z,28.66
2022-08-31T12:01:00.001Z,29.00
2022-08-31T12:03:52.577Z,29.08
2022-08-31T12:07:05.622Z,29.40
2022-08-31T12:09:57.214Z,29.28
2022-08-31T12:12:39.474Z,29.00
2022-08-31T12:15:18.331Z,29.09
2022-08-31T12:17:56.813Z,28.94
2022-08-31T12:20:31.557Z,28.80
2022-08-31T12:23:40.727Z,28.52
2022-08-31T12:26:33.170Z,28.78
2022-08-31T12:29:17.065Z,28.61
2022-08-31T12:32:11.172Z,28.91
2022-08-31T12:34:42.706Z,28.62
2022-08-31T12:37:21.905Z,28.88
2022-08-31T13:54:29.297Z,28.29
2022-08-31T13:56:56.325Z,28.47
2022-08-31T13:59:33.988Z,28.82
2022-08-31T14:02:04.321Z,28.71
2022-08-31T14:05:00.411Z,28.54
2022-08-31T14:07:31.497Z,27.84
2022-08-31T14:10:00.986Z,27.53
2022-08-31T14:12:35.336Z,27.21
2022-08-31T14:15:20.037Z,27.09
2022-08-31T14:20:53.364Z,27.58
2022-08-31T14:23:33.062Z,28.00
2022-08-31T14:26:04.649Z,28.17
2022-08-31T14:28:43.239Z,28.18
2022-08-31T14:31:22.235Z,28.13
2022-08-31T14:33:56.134Z,28.29
2022-08-31T14:36:24.568Z,28.19
2022-08-31T14:38:55.020Z,28.04
2022-08-31T14:41:30.545Z,28.19
2022-08-31T14:44:06.856Z,28.37
2022-08-31T14:46:36.985Z,28.35
2022-08-31T14:49:05.348Z,28.29
2022-08-31T14:51:34.089Z,28.04
2022-08-31T14:54:01.427Z,28.20
2022-08-31T14:56:33.232Z,28.08
2022-08-31T14:59:05.115Z,27.84
2022-08-31T15:01:35.792Z,27.85
2022-08-31T15:04:04.117Z,27.93
2022-08-31T15:06:31.618Z,27.87
2022-08-31T15:08:59.323Z,27.74
2022-08-31T15:11:26.224Z,27.66
2022-08-31T15:13:55.103Z,27.77
2022-08-31T15:16:22.053Z,27.70
2022-08-31T15:18:49.662Z,27.71
2022-08-31T15:21:16.503Z,27.75
2022-08-31T15:23:44.909Z,27.53
2022-08-31T15:26:14.782Z,27.68
2022-08-31T15:28:42.603Z,27.76
2022-08-31T15:31:21.332Z,27.71
2022-08-31T15:33:49.587Z,27.58
2022-08-31T15:36:18.445Z,27.39
2022-08-31T15:38:45.717Z,27.37
2022-08-31T15:41:13.177Z,27.38
2022-08-31T15:43:42.640Z,27.41
2022-08-31T15:46:14.148Z,27.21
2022-08-31T15:48:45.798Z,27.18
2022-08-31T15:51:21.826Z,26.99
2022-08-31T15:54:11.668Z,26.89
2022-08-31T15:56:41.031Z,26.98
2022-08-31T15:59:10.105Z,26.93
2022-08-31T16:01:39.219Z,26.91
2022-08-31T16:04:06.318Z,26.88
2022-08-31T16:06:34.977Z,26.81
2022-08-31T16:09:03.973Z,26.66
2022-08-31T16:11:36.994Z,26.30
2022-08-31T16:14:05.526Z,26.55
2022-08-31T16:16:36.879Z,26.37
2022-08-31T16:19:06.972Z,26.55
2022-08-31T16:21:37.494Z,26.57
2022-08-31T16:24:08.119Z,26.52
2022-08-31T16:26:38.078Z,26.35
2022-08-31T16:29:07.736Z,26.39
2022-08-31T16:31:35.353Z,26.29
2022-08-31T16:34:02.292Z,26.27
2022-08-31T16:36:30.703Z,26.09
2022-08-31T16:39:00.127Z,26.16
2022-08-31T16:41:30.593Z,26.33
2022-08-31T16:44:18.887Z,26.32
2022-08-31T16:46:46.036Z,26.30
2022-08-31T16:49:31.418Z,26.25
2022-08-31T16:52:00.859Z,26.19
2022-08-31T16:54:28.700Z,26.19
2022-08-31T16:56:57.523Z,26.29
2022-08-31T16:59:26.056Z,26.28
2022-08-31T17:01:53.407Z,26.29
2022-08-31T17:04:48.007Z,26.22
2022-08-31T17:07:12.411Z,26.27
2022-08-31T17:09:39.979Z,26.26
2022-08-31T17:12:09.589Z,26.15
2022-08-31T17:14:43.581Z,25.83
2022-08-31T17:17:12.583Z,25.90
2022-08-31T17:19:42.106Z,25.80
2022-08-31T17:22:21.469Z,25.88
2022-08-31T17:24:50.677Z,25.81
2022-08-31T17:27:19.796Z,25.89
2022-08-31T17:29:49.797Z,25.77
2022-08-31T17:32:18.954Z,25.61
2022-08-31T17:34:50.164Z,25.47
2022-08-31T17:37:20.270Z,25.30
2022-08-31T17:39:50.667Z,25.19
2022-08-31T17:42:18.372Z,25.09
2022-08-31T17:44:48.088Z,25.11
2022-08-31T17:47:14.977Z,25.11
2022-08-31T17:49:46.597Z,24.97
2022-08-31T17:52:13.936Z,24.88
2022-08-31T17:54:43.287Z,24.84
2022-08-31T17:57:12.943Z,24.83
2022-08-31T17:59:41.533Z,24.84
2022-08-31T18:02:11.398Z,24.76
2022-08-31T18:04:39.181Z,24.58
2022-08-31T18:07:07.186Z,24.54
2022-08-31T18:09:36.256Z,24.50
2022-08-31T18:12:06.259Z,24.41
2022-08-31T18:14:34.799Z,24.31
2022-08-31T18:17:03.904Z,24.00
2022-08-31T18:19:32.422Z,24.08
2022-08-31T18:22:00.477Z,24.06
2022-08-31T18:24:28.203Z,24.10
2022-08-31T18:26:56.726Z,24.05
2022-08-31T18:29:26.863Z,24.06
2022-08-31T18:31:56.635Z,23.95
2022-08-31T18:34:24.972Z,23.85
2022-08-31T18:36:55.416Z,23.79
2022-08-31T18:39:47.702Z,23.77
2022-08-31T18:42:32.226Z,23.74
2022-08-31T18:45:15.903Z,23.78
2022-08-31T18:47:43.590Z,23.63
2022-08-31T18:50:10.505Z,23.59
2022-08-31T18:52:40.276Z,23.50
2022-08-31T18:55:15.526Z,23.46
2022-08-31T18:57:48.920Z,23.49
2022-08-31T19:00:17.880Z,23.55
2022-08-31T19:02:45.371Z,23.50
2022-08-31T19:05:14.451Z,23.46
2022-08-31T19:07:42.018Z,23.46
2022-08-31T19:10:12.826Z,23.42
2022-08-31T19:12:42.570Z,23.39
2022-08-31T19:15:10.806Z,23.34
2022-08-31T19:17:40.149Z,23.22
2022-08-31T19:20:10.226Z,23.17
2022-08-31T19:22:38.231Z,23.00
2022-08-31T19:25:08.063Z,23.00
2022-08-31T19:27:36.617Z,22.92
2022-08-31T19:30:06.014Z,22.85
2022-08-31T19:32:33.664Z,22.70
2022-08-31T19:35:02.391Z,22.59
2022-08-31T19:37:29.274Z,22.55
2022-08-31T19:39:56.121Z,22.55
2022-08-31T19:42:40.223Z,22.51
2022-08-31T19:45:24.806Z,22.44
2022-08-31T19:47:52.327Z,22.38
2022-08-31T19:50:20.756Z,22.29
2022-08-31T19:52:48.757Z,22.22
2022-08-31T19:55:15.700Z,22.11
2022-08-31T19:57:43.452Z,22.12
2022-08-31T20:00:11.936Z,22.12
2022-08-31T20:02:42.217Z,22.06
2022-08-31T20:05:09.849Z,21.81
2022-08-31T20:07:39.891Z,21.78
2022-08-31T20:10:07.897Z,21.92
2022-08-31T20:12:35.110Z,21.91
2022-08-31T20:15:02.598Z,21.86
2022-08-31T20:17:30.124Z,21.86
2022-08-31T20:19:59.961Z,21.76
2022-08-31T20:22:29.709Z,21.73
2022-08-31T20:25:00.816Z,21.69
2022-08-31T20:27:28.213Z,21.63
2022-08-31T20:29:56.506Z,21.51
2022-08-31T20:32:23.561Z,21.49
2022-08-31T20:34:51.216Z,21.44
2022-08-31T20:37:18.321Z,21.28
2022-08-31T20:39:45.144Z,21.26
2022-08-31T20:42:13.449Z,21.31
2022-08-31T20:44:40.379Z,21.31
2022-08-31T20:47:27.527Z,21.27
2022-08-31T20:49:57.297Z,21.28
2022-08-31T20:52:26.594Z,21.14
2022-08-31T20:55:01.721Z,21.11
2022-08-31T20:57:32.571Z,21.12
2022-08-31T21:00:05.568Z,21.11
2022-08-31T21:02:34.095Z,21.10
2022-08-31T21:05:26.781Z,21.00
2022-08-31T21:07:48.923Z,20.92
2022-08-31T21:10:15.829Z,20.92
2022-08-31T21:12:47.781Z,20.89
2022-08-31T21:15:14.947Z,20.73
2022-08-31T21:17:41.874Z,20.77
2022-08-31T21:20:09.385Z,20.72
2022-08-31T21:22:37.622Z,20.72
2022-08-31T21:25:09.811Z,20.69
2022-08-31T21:27:36.725Z,20.60
2022-08-31T21:30:06.468Z,20.55
2022-08-31T21:32:33.851Z,20.63
2022-08-31T21:35:00.687Z,20.64
2022-08-31T21:37:27.566Z,20.56
2022-08-31T21:39:57.869Z,20.44
2022-08-31T21:42:25.173Z,20.43
2022-08-31T21:44:52.130Z,20.37
2022-08-31T21:47:20.468Z,20.31
2022-08-31T21:49:49.843Z,20.30
2022-08-31T21:52:17.275Z,20.29
2022-08-31T21:54:46.123Z,20.17
2022-08-31T21:57:14.173Z,20.17
2022-08-31T21:59:41.204Z,20.29
2022-08-31T22:02:11.485Z,20.27
2022-08-31T22:04:42.038Z,20.23
2022-08-31T22:07:09.562Z,19.95
2022-08-31T22:09:37.257Z,20.08
2022-08-31T22:12:07.173Z,19.92
2022-08-31T22:14:37.258Z,20.09
2022-08-31T22:17:06.289Z,20.05
2022-08-31T22:19:36.128Z,19.94
2022-08-31T22:22:07.367Z,20.07
2022-08-31T22:24:36.029Z,20.09
2022-08-31T22:27:06.541Z,19.93
2022-08-31T22:29:35.654Z,20.02
2022-08-31T22:32:05.291Z,19.96
2022-08-31T22:34:32.195Z,19.87
2022-08-31T22:36:59.148Z,19.85
2022-08-31T22:39:29.580Z,19.78
2022-08-31T22:41:56.985Z,19.77
2022-08-31T22:44:26.149Z,19.80
2022-08-31T22:46:56.221Z,19.68
2022-08-31T22:49:23.271Z,19.69
2022-08-31T22:51:50.136Z,19.61
2022-08-31T22:54:19.135Z,19.67
2022-08-31T22:56:48.018Z,19.61
2022-08-31T22:59:17.479Z,19.59
2022-08-31T23:01:49.900Z,19.60
2022-08-31T23:04:22.026Z,19.55
2022-08-31T23:06:51.491Z,19.58
2022-08-31T23:09:21.244Z,19.61
2022-08-31T23:11:52.945Z,19.59
2022-08-31T23:14:22.633Z,19.56
2022-08-31T23:16:55.283Z,19.56
2022-08-31T23:19:26.293Z,19.47
2022-08-31T23:21:56.834Z,19.45
2022-08-31T23:24:28.604Z,19.44
2022-08-31T23:27:03.200Z,19.47
2022-08-31T23:29:31.174Z,19.48
2022-08-31T23:31:59.573Z,19.48
2022-08-31T23:34:27.155Z,19.47
2022-08-31T23:36:55.248Z,19.40
2022-08-31T23:39:23.727Z,19.43
2022-08-31T23:41:50.874Z,19.40
2022-08-31T23:44:21.603Z,19.43
2022-08-31T23:46:49.196Z,19.45
2022-08-31T23:49:18.790Z,19.46
2022-08-31T23:51:46.115Z,19.48
2022-08-31T23:54:15.701Z,19.51
2022-08-31T23:56:45.864Z,19.41
2022-08-31T23:59:17.055Z,19.27
